• Join FlightAware (Why Join?)
  • Login
  • US Flag 
11:18AM EDT


 

Airport Tracker/Info


-or-


 

Live Flight TrackerFlight Track Log ✈ VH-FDJ ✈ 27-Jun-2013 ✈ YAMT - YBAS / ASP

Flight Track Log - Related Links

Times and Time Zones

All times are in EDT time to prevent confusion due to time zone crossing. See the VH-FDJ flight status page for this flight to view local times or setup timezone preferences in your user account.

Time Position Orientation Groundspeed Altitude Reporting Facility
EDT Latitude Longitude Course Direction KTS MPH feet Rate Location/Type
02:16AM -25.9547 131.3729 47° Northeast 3,000  Level Aus ATC (Calculated)
02:17AM -25.8878 131.4525 47° Northeast 3,000  Level Aus ATC (Calculated)
02:19AM -25.8223 131.5304 47° Northeast  Level FlightAware Approximate
02:20AM -25.7743 131.5873 47° Northeast  Level FlightAware Approximate
02:20AM -25.7580 131.6065 47° Northeast 3,000  Level Aus ATC (Calculated)
02:21AM -25.7263 131.6441 47° Northeast  Level FlightAware Approximate
02:21AM -25.6971 131.6786 47° Northeast 3,000  Level Aus ATC (Calculated)
02:22AM -25.6924 131.6842 47° Northeast  Level FlightAware Approximate
02:22AM -25.6971 131.6786 47° Northeast 3,000  Level Aus ATC (Calculated)
02:23AM -25.5791 131.8181 227° Southwest 3,000  Level Aus ATC (Calculated)
02:24AM -25.6043 131.7883 47° Northeast  Level FlightAware Approximate
02:25AM -25.5294 131.8766 47° Northeast  Level FlightAware Approximate
02:26AM -25.4813 131.9332 47° Northeast  Level FlightAware Approximate
02:27AM -25.4331 131.9898 47° Northeast  Level FlightAware Approximate
02:28AM -25.3850 132.0464 47° Northeast  Level FlightAware Approximate
02:28AM -25.3574 132.0788 47° Northeast 3,000  Level Aus ATC (Calculated)
02:29AM -25.3368 132.1028 47° Northeast  Level FlightAware Approximate
02:30AM -25.2964 132.1503 47° Northeast  Level FlightAware Approximate
02:30AM -25.2603 132.1926 47° Northeast 3,000  Level Aus ATC (Calculated)
02:32AM -25.1863 132.2790 47° Northeast  Level FlightAware Approximate
02:33AM -25.1381 132.3353 47° Northeast  Level FlightAware Approximate
02:33AM -25.1235 132.3523 47° Northeast 3,000  Level Aus ATC (Calculated)
02:33AM -25.0822 132.4005 47° Northeast 3,000  Level Aus ATC (Calculated)
02:35AM -25.0331 132.4576 47° Northeast  Level FlightAware Approximate
02:36AM -24.9847 132.5138 46° Northeast  Level FlightAware Approximate
02:37AM -24.9364 132.5699 46° Northeast  Level FlightAware Approximate
02:38AM -24.8880 132.6260 46° Northeast  Level FlightAware Approximate
02:39AM -24.8396 132.6820 46° Northeast  Level FlightAware Approximate
02:40AM -24.7913 132.7380 46° Northeast  Level FlightAware Approximate
02:41AM -24.7428 132.7939 46° Northeast  Level FlightAware Approximate
02:41AM -24.7210 132.8191 46° Northeast 3,000  Level Aus ATC (Calculated)
02:43AM -24.6386 132.9141 46° Northeast  Level FlightAware Approximate
02:44AM -24.5901 132.9699 46° Northeast  Level FlightAware Approximate
02:45AM -24.5416 133.0257 46° Northeast  Level FlightAware Approximate
02:45AM -24.5475 133.0188 46° Northeast 3,000  Level Aus ATC (Calculated)
02:46AM -24.5005 133.0729 46° Northeast 3,000  Level Aus ATC (Calculated)
02:48AM -24.4042 133.1833 46° Northeast  Level FlightAware Approximate
02:49AM -24.3556 133.2389 46° Northeast  Level FlightAware Approximate
02:49AM -24.3240 133.2751 46° Northeast 3,000  Level Aus ATC (Calculated)
02:50AM -24.3070 133.2944 46° Northeast  Level FlightAware Approximate
02:51AM -24.2640 133.3435 46° Northeast  Level FlightAware Approximate
02:52AM -24.2153 133.3990 46° Northeast  Level FlightAware Approximate
02:53AM -24.1667 133.4544 46° Northeast  Level FlightAware Approximate
02:53AM -24.1250 133.5018 318° Northwest 3,000  Level Aus ATC (Calculated)
02:53AM -24.1250 133.5018 46° Northeast 3,000  Level Aus ATC (Calculated)
02:54AM -24.1180 133.5098 46° Northeast  Level FlightAware Approximate
02:55AM -24.0666 133.5683 46° Northeast  Level FlightAware Approximate
02:55AM -24.0005 133.6432 226° Southwest 3,000  Level Aus ATC (Calculated)
02:56AM -24.0178 133.6235 46° Northeast  Level FlightAware Approximate
02:57AM -23.9461 133.7049 46° Northeast  Level FlightAware Approximate
02:57AM -23.9096 133.7461 360° North 3,000  Level Aus ATC (Calculated)
02:57AM -23.9096 133.7461 46° Northeast 3,000  Level Aus ATC (Calculated)
02:59AM -23.8568 133.8058 46° Northeast  Level FlightAware Approximate
03:00AM -23.8080 133.8610 46° Northeast  Level FlightAware Approximate
03:00AM -23.7927 133.8782 122° Southeast 1,800  Level Aus ATC (Calculated)
03:02AM -23.8067 133.9022 North  Level Estimated
03:03AM -23.8067 133.9022 302° West  Level Estimated